Startpagina
METAR-TAF:

METAR-TAF

Vliegvelden :

Aeropuerto de Ibiza

Ibiza, Spanje

breedte: 38-52N, lengte: 001-23E, hoogte: 7 m

Actueel weer

Dit bericht is 22 minuten geleden gemaakt, om 07:30 UTC
Wind 2 kt uit variabele richting
Temperatuur 10°C
Vochtigheid 93%
Druk 1026 hPa
Zicht 10 km of meer
Verspreide wolken op 3000 ft

METAR: LEIB 270730Z VRB02KT 9999 SCT030 10/09 Q1026 NOSIG

Tijdstip: 08:52 (07:52 UTC)

Verwachting

Dit bericht is 5 uur en het 52 minuten geleden gemaakt, om 02:00 UTC
Verwachting geldig van 27 om 03 UTC tot 28 om 03 UTC
Wind 4 kt uit variabele richting
Zicht 10 km of meer
geen wolken onder 1500 m en geen cumulonimbus
Wijzigt naar
van 27 om 09 UTC tot 27 om 11 UTC
Wind 8 kt uit het zuidzuidwesten

TAF: LEIB 270200Z 2703/2803 VRB04KT CAVOK TX18/2712Z TN10/2705Z BECMG 2709/2711 20008KT

Waarnemingen en weersverwachtingen van meer dan 4000 vliegvelden (METAR en TAF).

De beschikbare stations zijn de gele en rode punten op de kaart.

Ga met uw muis naar het station om de naam te zien.

Klik dan om waarnemingen en weersverwachtingen te zien.

kaart wijzigen: klik op de groene knoppen met een zwart kruis om in te zoomen, op de groene knop met een streepje om uit te zoomen of op de groene pijlen voor aangrenzende kaarten.


METAR-TAF: